This is the latest recevied weather packets stored in our database for station/object WB3IGR. If no packets are shown the sender has not sent any weather packets the latest 10 day(s).
| Time | Temp. | Humidity | Pressure | Rain* | Wind** | Luminosity | Snow |
|---|---|---|---|---|---|---|---|
| 1777585947 | 15.56° C | 71% | 1011 hPa | 0 mm | - | 182 W/m² | - |
| 1777585642 | 15.56° C | 71% | 1010.8 hPa | 0 mm | - | 381 W/m² | - |
| 1777585338 | 15° C | 74% | 1010.6 hPa | 0 mm | - | 375 W/m² | - |
| 1777585032 | 15° C | 73% | 1010.6 hPa | 0 mm | - | 414 W/m² | - |
| 1777584729 | 13.89° C | 76% | 1010.5 hPa | 0 mm | - | 315 W/m² | - |
| 1777584427 | 13.89° C | 75% | 1010.7 hPa | 0 mm | - | 234 W/m² | - |
| 1777584123 | 13.33° C | 80% | 1010.5 hPa | 0 mm | - | 272 W/m² | - |
| 1777583821 | 12.78° C | 82% | 1010.4 hPa | 0 mm | - | 140 W/m² | - |
| 1777583517 | 12.78° C | 82% | 1010.5 hPa | 0 mm | - | 118 W/m² | - |
| 1777583212 | 12.78° C | 80% | 1010.3 hPa | 0 mm | - | 95 W/m² | - |
| 1777582907 | 12.78° C | 79% | 1010.2 hPa | 0 mm | - | 95 W/m² | - |
| 1777582604 | 13.33° C | 78% | 1010.4 hPa | 0 mm | - | 81 W/m² | - |
| 1777582299 | 13.33° C | 76% | 1010.1 hPa | 0 mm | - | 122 W/m² | - |
| 1777581998 | 14.44° C | 72% | 1009.7 hPa | 0 mm | - | 112 W/m² | - |
| 1777581692 | 16.11° C | 63% | 1009.5 hPa | 0 mm | - | 72 W/m² | - |
| 1777581386 | 16.11° C | 61% | 1009.4 hPa | 0 mm | - | 150 W/m² | - |
| 1777581081 | 16.67° C | 62% | 1009.2 hPa | 0 mm | - | 231 W/m² | - |
| 1777580780 | 16.67° C | 62% | 1009.2 hPa | 0 mm | - | 281 W/m² | - |
| 1777580476 | 16.11° C | 62% | 1009.1 hPa | 0 mm | - | 236 W/m² | - |
| 1777580171 | 16.67° C | 61% | 1009.2 hPa | 0 mm | - | 209 W/m² | - |
| 1777579868 | 16.67° C | 59% | 1009.3 hPa | 0 mm | - | 222 W/m² | - |
| 1777579563 | 16.67° C | 63% | 1009.3 hPa | 0 mm | - | 288 W/m² | - |
| 1777579261 | 16.67° C | 64% | 1009.3 hPa | 0 mm | - | 236 W/m² | - |
| 1777578957 | 16.67° C | 61% | 1009.2 hPa | 0 mm | - | 267 W/m² | - |
| 1777578653 | 16.11° C | 63% | 1009.2 hPa | 0 mm | - | 626 W/m² | - |
* Rain latest hour (hover to see other rain measurements)
** Current wind speed in m/s (hover to see current wind gust speed)